KRDM

Roberts Field Airport

Redmond, Oregon, USA
METAR KRDM 231056Z AUTO 15008KT 10SM BKN120 01/M04 A3018 RMK AO2 SLP234 T00061044
Observed Flight Rules
Jan-23 @ 10:56 UTC (an hour ago) Visual Flight Rules
Wind Visibility Clouds
150° at 8 knots 10 miles
  • Broken at 12,000' AGL
Temperatures Readings
Current 1°C / 34°F
Dewpoint -4°C / 25°F
Humidity 70%
Altimeter 30.18" Hg
Pressure 1023.4 hPa
Elevation 938
METAR KRDM 231056Z AUTO 15008KT 10SM BKN120 01/M04 A3018 RMK AO2 SLP234 T00061044
Observed Flight Rules
Jan-23 @ 10:56 UTC
(an hour ago)
VFR
Wind Visibility
150° at 8 knots 10 miles
Clouds
  • Broken at 12,000' AGL
Temperature Dewpoint
1°C / 34°F -4°C / 25°F
Humidity Altimeter Pressure
70% 30.18" Hg 1023.4 hPa